Time;durP1;ratioP1;P1;durP2;ratioP2;P2;SDS_P1;SDS_P2;PMS_P1;PMS_P2;Temp;Humidity;BMP_temperature;BMP_pressure;BME280_temperature;BME280_humidity;BME280_pressure;Samples;Min_cycle;Max_cycle;Signal;HPM_P1;HPM_P2
2023/10/25 00:01:25;;;;;;;41.23;22.10;;;9.60;99.90;;;;;;5055492;28;20186;-50
2023/10/25 00:03:51;;;;;;;41.67;21.90;;;9.60;99.90;;;;;;5054515;28;20938;-49
2023/10/25 00:06:16;;;;;;;37.03;21.90;;;9.60;99.90;;;;;;5055221;28;20412;-49
2023/10/25 00:08:42;;;;;;;39.20;21.67;;;9.60;99.90;;;;;;5055326;28;20854;-49
2023/10/25 00:11:08;;;;;;;44.40;21.30;;;9.50;99.90;;;;;;5054940;28;20187;-49
2023/10/25 00:13:34;;;;;;;35.73;21.73;;;9.50;99.90;;;;;;5054965;28;20288;-49
2023/10/25 00:16:01;;;;;;;35.30;21.53;;;9.50;99.90;;;;;;5055234;28;20504;-48
2023/10/25 00:18:27;;;;;;;36.97;21.20;;;9.40;99.90;;;;;;5055095;28;20518;-48
2023/10/25 00:20:53;;;;;;;40.57;22.10;;;9.40;99.90;;;;;;5054903;28;20972;-49
2023/10/25 00:23:19;;;;;;;35.40;20.83;;;9.30;99.90;;;;;;5054509;28;20417;-48
2023/10/25 00:25:46;;;;;;;36.47;19.87;;;9.40;99.90;;;;;;5054491;28;20427;-48
2023/10/25 00:28:12;;;;;;;35.90;21.30;;;9.30;99.90;;;;;;5055086;28;20463;-49
2023/10/25 00:30:38;;;;;;;44.90;22.73;;;9.20;99.90;;;;;;5054444;28;20467;-48
2023/10/25 00:33:04;;;;;;;46.07;23.70;;;9.20;99.90;;;;;;5054623;28;20190;-48
2023/10/25 00:35:29;;;;;;;40.33;23.33;;;9.20;99.90;;;;;;5054347;28;20420;-49
2023/10/25 00:37:55;;;;;;;42.20;22.80;;;9.20;99.90;;;;;;5054639;28;20174;-49
2023/10/25 00:40:20;;;;;;;48.10;23.80;;;9.10;99.90;;;;;;5054573;28;20181;-48
2023/10/25 00:42:46;;;;;;;47.07;24.60;;;9.10;99.90;;;;;;5054741;28;20561;-49
2023/10/25 00:45:11;;;;;;;42.93;24.03;;;9.10;99.90;;;;;;5054374;28;20585;-50
2023/10/25 00:47:38;;;;;;;43.50;23.40;;;9.10;99.90;;;;;;5054027;28;20218;-49
2023/10/25 00:50:04;;;;;;;48.77;24.63;;;9.10;99.90;;;;;;5054411;28;20276;-49
2023/10/25 00:52:30;;;;;;;40.93;21.67;;;9.00;99.90;;;;;;5053729;28;20553;-48
2023/10/25 00:54:56;;;;;;;47.80;24.00;;;9.00;99.90;;;;;;5054202;28;20767;-49
2023/10/25 00:57:22;;;;;;;43.20;23.63;;;9.00;99.90;;;;;;5054552;28;20201;-49
2023/10/25 00:59:47;;;;;;;41.27;21.63;;;8.90;99.90;;;;;;5054119;28;20527;-49
2023/10/25 01:02:14;;;;;;;48.43;23.93;;;8.90;99.90;;;;;;5053884;28;20181;-49
2023/10/25 01:04:40;;;;;;;45.50;23.83;;;9.00;99.90;;;;;;5054009;28;20182;-50
2023/10/25 01:07:05;;;;;;;44.17;23.20;;;9.00;99.90;;;;;;5035614;28;20472;-50
2023/10/25 01:09:31;;;;;;;43.23;23.47;;;9.00;99.90;;;;;;5054152;28;20235;-49
2023/10/25 01:11:57;;;;;;;49.10;24.60;;;9.00;99.90;;;;;;5053856;28;20261;-49
2023/10/25 01:14:27;;;;;;;47.23;25.03;;;9.00;99.90;;;;;;5053440;28;20440;-49
2023/10/25 01:16:52;;;;;;;48.07;24.47;;;9.10;99.90;;;;;;5053782;28;20416;-49
2023/10/25 01:19:18;;;;;;;48.20;23.97;;;9.10;99.90;;;;;;5053712;28;20423;-50
2023/10/25 01:21:44;;;;;;;45.07;22.47;;;9.10;99.90;;;;;;5053476;28;20186;-49
2023/10/25 01:24:10;;;;;;;44.13;23.40;;;9.10;99.90;;;;;;5053843;28;20189;-49
2023/10/25 01:26:36;;;;;;;48.80;24.73;;;9.20;99.90;;;;;;5054065;28;20202;-49
2023/10/25 01:29:02;;;;;;;46.13;23.60;;;9.30;99.90;;;;;;5053624;28;21039;-50
2023/10/25 01:31:28;;;;;;;45.33;23.67;;;9.30;99.90;;;;;;5053546;28;20427;-49
2023/10/25 01:33:53;;;;;;;49.43;25.33;;;9.20;99.90;;;;;;5053404;28;20925;-49
2023/10/25 01:36:19;;;;;;;44.50;25.00;;;9.20;99.90;;;;;;5053401;28;20528;-50
2023/10/25 01:38:44;;;;;;;43.47;22.47;;;9.20;99.90;;;;;;5053625;28;20194;-50
2023/10/25 01:41:15;;;;;;;49.80;23.33;;;9.20;99.90;;;;;;5053443;28;20271;-49
2023/10/25 01:43:44;;;;;;;43.37;22.67;;;9.20;99.90;;;;;;5053858;28;20190;-50
2023/10/25 01:46:10;;;;;;;48.90;23.83;;;9.10;99.90;;;;;;5053352;28;20424;-49
2023/10/25 01:48:37;;;;;;;48.50;24.57;;;9.10;99.90;;;;;;5052959;28;20482;-49
2023/10/25 01:51:05;;;;;;;43.77;23.10;;;9.00;99.90;;;;;;5052864;28;20238;-50
2023/10/25 01:53:31;;;;;;;50.30;24.07;;;9.00;99.90;;;;;;5053102;28;20429;-50
2023/10/25 01:55:56;;;;;;;58.33;25.50;;;9.00;99.90;;;;;;5053217;28;20413;-50
2023/10/25 01:58:22;;;;;;;43.37;21.67;;;9.00;99.90;;;;;;5053258;28;20222;-50
2023/10/25 02:00:48;;;;;;;48.03;23.80;;;8.90;99.90;;;;;;5053500;28;20190;-50
2023/10/25 02:03:13;;;;;;;48.33;23.17;;;8.90;99.90;;;;;;5053598;28;20911;-50
2023/10/25 02:05:39;;;;;;;48.80;24.30;;;8.90;99.90;;;;;;5053361;28;20244;-50
2023/10/25 02:08:04;;;;;;;50.87;23.77;;;8.90;99.90;;;;;;5053553;28;20221;-50
2023/10/25 02:10:30;;;;;;;49.97;25.60;;;8.80;99.90;;;;;;5053376;28;20174;-50
2023/10/25 02:12:55;;;;;;;57.43;27.03;;;8.80;99.90;;;;;;5053361;28;20262;-50
2023/10/25 02:15:21;;;;;;;53.47;26.33;;;8.80;99.90;;;;;;5053015;28;20525;-49
2023/10/25 02:17:46;;;;;;;45.90;24.07;;;8.80;99.90;;;;;;5053025;28;20181;-50
2023/10/25 02:20:12;;;;;;;48.10;24.20;;;8.80;99.90;;;;;;5053278;28;20199;-50
2023/10/25 02:22:38;;;;;;;51.77;25.60;;;8.90;99.90;;;;;;5053553;28;20181;-49
2023/10/25 02:25:04;;;;;;;52.13;24.60;;;8.80;99.90;;;;;;5053352;28;20235;-49
2023/10/25 02:27:29;;;;;;;52.73;24.30;;;8.80;99.90;;;;;;5056278;28;20666;-48
2023/10/25 02:29:55;;;;;;;54.90;24.30;;;8.80;99.90;;;;;;5056759;28;20434;-49
2023/10/25 02:32:20;;;;;;;54.73;24.50;;;8.80;99.90;;;;;;5056789;28;20192;-48
2023/10/25 02:34:46;;;;;;;55.70;24.87;;;8.70;99.90;;;;;;5056980;28;20231;-49
2023/10/25 02:37:12;;;;;;;46.20;23.73;;;8.80;99.90;;;;;;5056961;28;20190;-48
2023/10/25 02:39:38;;;;;;;49.13;23.60;;;8.70;99.90;;;;;;5056998;28;20426;-49
2023/10/25 02:42:04;;;;;;;58.13;25.60;;;8.70;99.90;;;;;;5056897;28;20297;-49
2023/10/25 02:44:30;;;;;;;50.33;24.00;;;8.70;99.90;;;;;;5056708;28;20746;-49
2023/10/25 02:46:56;;;;;;;55.50;25.13;;;8.80;99.90;;;;;;5056588;28;20546;-49
2023/10/25 02:49:22;;;;;;;55.60;24.37;;;8.80;99.90;;;;;;5056679;28;20194;-48
2023/10/25 02:51:48;;;;;;;55.93;24.77;;;8.90;99.90;;;;;;5056311;28;20471;-49
2023/10/25 02:54:13;;;;;;;52.83;24.30;;;8.90;99.90;;;;;;5056711;28;20698;-49
2023/10/25 02:56:39;;;;;;;51.47;24.97;;;8.90;99.90;;;;;;5056910;28;20178;-48
2023/10/25 02:59:04;;;;;;;51.97;24.13;;;8.90;99.90;;;;;;5056506;28;20181;-48
2023/10/25 03:01:30;;;;;;;50.97;24.87;;;8.90;99.90;;;;;;5056618;28;20539;-48
2023/10/25 03:03:55;;;;;;;54.60;25.27;;;8.80;99.90;;;;;;5056569;28;20226;-48
2023/10/25 03:06:21;;;;;;;60.30;25.80;;;8.80;99.90;;;;;;5056192;28;20183;-48
2023/10/25 03:08:46;;;;;;;49.73;23.40;;;8.70;99.90;;;;;;5056090;28;20208;-48
2023/10/25 03:11:12;;;;;;;51.73;24.10;;;8.70;99.90;;;;;;5055936;28;20186;-49
2023/10/25 03:13:38;;;;;;;50.60;23.43;;;8.60;99.90;;;;;;5056237;28;20185;-50
2023/10/25 03:16:04;;;;;;;55.67;25.43;;;8.60;99.90;;;;;;5056287;28;20254;-49
2023/10/25 03:18:30;;;;;;;53.83;23.40;;;8.60;99.90;;;;;;5055870;28;20185;-50
2023/10/25 03:21:03;;;;;;;53.50;24.10;;;8.60;99.90;;;;;;5055985;28;20505;-49
2023/10/25 03:23:30;;;;;;;52.73;24.37;;;8.60;99.90;;;;;;5056331;28;20410;-49
2023/10/25 03:25:57;;;;;;;48.63;24.00;;;8.60;99.90;;;;;;5056007;28;20480;-49
2023/10/25 03:28:22;;;;;;;55.97;23.93;;;8.60;99.90;;;;;;5056131;28;20871;-49
2023/10/25 03:30:48;;;;;;;52.23;23.87;;;8.70;99.90;;;;;;5055765;28;20471;-49
2023/10/25 03:33:13;;;;;;;52.63;24.13;;;8.60;99.90;;;;;;5055671;28;20185;-50
2023/10/25 03:35:39;;;;;;;46.30;22.00;;;8.60;99.90;;;;;;5070614;28;20235;-50
2023/10/25 03:38:04;;;;;;;53.90;24.53;;;8.60;99.90;;;;;;5055163;28;20195;-49
2023/10/25 03:40:30;;;;;;;49.20;22.80;;;8.60;99.90;;;;;;5055474;28;20630;-49
2023/10/25 03:42:55;;;;;;;53.13;24.40;;;8.50;99.90;;;;;;5055920;28;20654;-49
2023/10/25 03:45:21;;;;;;;45.23;22.03;;;8.40;99.90;;;;;;5055787;28;20185;-51
2023/10/25 03:47:46;;;;;;;59.73;24.63;;;8.40;99.90;;;;;;5055335;28;20214;-49
2023/10/25 03:50:12;;;;;;;48.50;23.67;;;8.50;99.90;;;;;;5055548;28;20189;-50
2023/10/25 03:52:38;;;;;;;50.23;23.33;;;8.50;99.90;;;;;;5055141;28;20227;-50
2023/10/25 03:55:04;;;;;;;56.00;24.67;;;8.40;99.90;;;;;;5055488;28;20185;-49
2023/10/25 03:57:29;;;;;;;53.00;23.70;;;8.40;99.90;;;;;;5055385;28;20436;-50
2023/10/25 03:59:55;;;;;;;51.20;22.37;;;8.40;99.90;;;;;;5055583;28;20412;-48
2023/10/25 04:02:20;;;;;;;45.60;21.53;;;8.30;99.90;;;;;;5055172;28;20244;-48
2023/10/25 04:04:46;;;;;;;56.90;24.20;;;8.30;99.90;;;;;;5055184;28;20183;-48
2023/10/25 04:07:12;;;;;;;59.10;23.77;;;8.20;99.90;;;;;;5054940;28;20245;-48
2023/10/25 04:09:38;;;;;;;48.30;22.70;;;8.30;99.90;;;;;;5054913;28;20712;-49
2023/10/25 04:12:04;;;;;;;47.23;21.73;;;8.30;99.90;;;;;;5055150;28;20181;-49
2023/10/25 04:14:29;;;;;;;57.20;22.50;;;8.20;99.90;;;;;;5054908;28;20474;-49
2023/10/25 04:16:55;;;;;;;47.07;22.10;;;8.10;99.90;;;;;;5054679;28;20199;-49
2023/10/25 04:19:20;;;;;;;44.07;21.13;;;8.10;99.90;;;;;;5054756;28;20181;-48
2023/10/25 04:21:46;;;;;;;48.17;23.20;;;8.00;99.90;;;;;;5054964;28;20220;-48
2023/10/25 04:24:11;;;;;;;45.03;21.43;;;7.90;99.90;;;;;;5055281;28;20189;-48
2023/10/25 04:26:37;;;;;;;52.60;22.73;;;7.90;99.90;;;;;;5054943;28;20183;-49
2023/10/25 04:29:03;;;;;;;53.07;23.20;;;7.90;99.90;;;;;;5054591;28;20176;-48
2023/10/25 04:31:28;;;;;;;48.47;21.17;;;7.90;99.90;;;;;;5054259;28;20183;-48
2023/10/25 04:33:54;;;;;;;41.60;20.67;;;7.80;99.90;;;;;;5054442;28;20219;-48
2023/10/25 04:36:19;;;;;;;47.13;22.90;;;7.80;99.90;;;;;;5054676;28;20184;-48
2023/10/25 04:38:46;;;;;;;47.17;22.23;;;7.70;99.90;;;;;;5054785;28;20200;-48
2023/10/25 04:41:12;;;;;;;58.43;24.40;;;7.70;99.90;;;;;;5054514;28;20186;-48
2023/10/25 04:43:37;;;;;;;53.57;22.30;;;7.60;99.90;;;;;;5054381;28;20417;-48
2023/10/25 04:46:03;;;;;;;48.87;22.57;;;7.60;99.90;;;;;;5054246;28;20426;-49
2023/10/25 04:48:29;;;;;;;51.37;22.03;;;7.50;99.90;;;;;;5054586;28;20218;-50
2023/10/25 04:50:54;;;;;;;60.90;24.33;;;7.50;99.90;;;;;;5054131;28;20234;-49
2023/10/25 04:53:20;;;;;;;59.20;24.70;;;7.50;99.90;;;;;;5054057;28;20184;-48
2023/10/25 04:55:46;;;;;;;53.67;23.00;;;7.50;99.90;;;;;;5054226;28;20181;-48
2023/10/25 04:58:12;;;;;;;66.53;24.00;;;7.50;99.90;;;;;;5054040;28;20557;-49
2023/10/25 05:00:38;;;;;;;56.77;25.17;;;7.40;99.90;;;;;;5054070;28;20623;-49
2023/10/25 05:03:08;;;;;;;60.00;24.57;;;7.40;99.90;;;;;;5054047;28;20435;-48
2023/10/25 05:05:36;;;;;;;68.17;24.07;;;7.40;99.90;;;;;;5054420;28;20416;-48
2023/10/25 05:08:02;;;;;;;51.97;23.90;;;7.40;99.90;;;;;;5053812;28;20499;-49
2023/10/25 05:10:28;;;;;;;66.90;24.70;;;7.40;99.90;;;;;;5054110;28;20416;-49
2023/10/25 05:12:54;;;;;;;59.57;24.30;;;7.40;99.90;;;;;;5053960;28;20512;-49
2023/10/25 05:15:20;;;;;;;61.13;23.53;;;7.40;99.90;;;;;;5054045;28;20189;-49
2023/10/25 05:17:47;;;;;;;58.20;23.97;;;7.40;99.90;;;;;;5053700;28;20557;-49
2023/10/25 05:20:13;;;;;;;67.83;25.47;;;7.30;99.90;;;;;;5053559;28;20425;-48
2023/10/25 05:22:48;;;;;;;59.63;24.27;;;7.30;99.90;;;;;;5053692;28;20417;-48
2023/10/25 05:25:14;;;;;;;72.73;26.00;;;7.30;99.90;;;;;;5053783;28;20427;-49
2023/10/25 05:27:39;;;;;;;67.03;25.57;;;7.30;99.90;;;;;;5053442;28;20932;-49
2023/10/25 05:30:07;;;;;;;69.00;24.57;;;7.20;99.90;;;;;;5053364;28;20429;-49
2023/10/25 05:32:35;;;;;;;56.00;23.73;;;7.20;99.90;;;;;;5053644;28;20180;-48
2023/10/25 05:35:03;;;;;;;63.30;23.20;;;7.20;99.90;;;;;;5053894;28;20428;-49
2023/10/25 05:37:29;;;;;;;53.87;23.83;;;7.20;99.90;;;;;;5053534;28;20885;-49
2023/10/25 05:39:56;;;;;;;70.27;26.63;;;7.20;99.90;;;;;;5053362;28;20498;-49
2023/10/25 05:42:23;;;;;;;58.40;24.60;;;7.10;99.90;;;;;;5053555;28;20428;-50
2023/10/25 05:44:56;;;;;;;65.60;25.03;;;7.20;99.90;;;;;;5053641;28;20454;-50
2023/10/25 05:47:22;;;;;;;57.80;23.43;;;7.10;99.90;;;;;;5053384;28;20461;-49
2023/10/25 05:49:48;;;;;;;58.53;24.40;;;7.10;99.90;;;;;;5053374;28;20414;-49
2023/10/25 05:52:14;;;;;;;56.93;23.80;;;7.10;99.90;;;;;;5052861;28;20481;-49
2023/10/25 05:54:40;;;;;;;49.97;23.63;;;7.10;99.90;;;;;;5053437;28;20424;-50
2023/10/25 05:57:06;;;;;;;63.90;24.63;;;7.10;99.90;;;;;;5053314;28;20906;-50
2023/10/25 05:59:32;;;;;;;52.80;22.40;;;7.00;99.90;;;;;;5053425;28;20448;-50
2023/10/25 06:02:13;;;;;;;60.03;23.77;;;6.90;99.90;;;;;;5052797;28;20512;-49
2023/10/25 06:04:40;;;;;;;51.07;23.87;;;6.90;99.90;;;;;;5053228;28;20212;-49
2023/10/25 06:07:08;;;;;;;59.13;24.53;;;6.90;99.90;;;;;;5053155;28;20464;-51
2023/10/25 06:09:34;;;;;;;64.53;23.93;;;6.90;99.90;;;;;;5053580;28;20453;-49
2023/10/25 06:12:00;;;;;;;52.60;23.80;;;6.90;99.90;;;;;;5053439;28;20413;-50
2023/10/25 06:14:27;;;;;;;62.83;25.47;;;7.00;99.90;;;;;;5053084;28;20430;-49
2023/10/25 06:16:53;;;;;;;52.97;23.10;;;6.90;99.90;;;;;;5053125;28;20179;-50
2023/10/25 06:19:18;;;;;;;59.50;23.07;;;6.90;99.90;;;;;;5053089;28;20413;-50
2023/10/25 06:21:44;;;;;;;54.27;23.60;;;6.90;99.90;;;;;;5053002;28;20205;-49
2023/10/25 06:24:09;;;;;;;66.03;24.17;;;6.90;99.90;;;;;;5053304;28;20212;-49
2023/10/25 06:26:35;;;;;;;70.43;24.97;;;6.90;99.90;;;;;;5053139;28;20533;-49
2023/10/25 06:29:00;;;;;;;65.03;24.83;;;7.00;99.90;;;;;;5052937;28;20216;-49
2023/10/25 06:31:26;;;;;;;59.30;23.60;;;6.90;99.90;;;;;;5052693;28;20228;-49
2023/10/25 06:33:51;;;;;;;56.40;24.37;;;6.90;99.90;;;;;;5052830;28;20174;-50
2023/10/25 06:36:17;;;;;;;60.30;24.87;;;7.00;99.90;;;;;;5053020;28;20184;-49
2023/10/25 06:38:43;;;;;;;52.30;23.30;;;7.00;99.90;;;;;;5052773;28;20189;-50
2023/10/25 06:41:20;;;;;;;60.57;24.77;;;7.00;99.90;;;;;;5053308;28;20562;-49
2023/10/25 06:43:46;;;;;;;64.27;25.90;;;7.10;99.90;;;;;;5053125;28;20246;-50
2023/10/25 06:46:11;;;;;;;58.50;23.90;;;7.10;99.90;;;;;;5052480;28;20908;-50
2023/10/25 06:51:20;;;;;;;57.00;24.00;;;7.10;99.90;;;;;;5195764;23;20256;-47
2023/10/25 06:53:46;;;;;;;64.80;24.80;;;7.20;99.90;;;;;;5038579;28;20447;-45
2023/10/25 06:56:12;;;;;;;60.20;26.30;;;7.20;99.90;;;;;;5044255;28;20454;-45
2023/10/25 06:58:38;;;;;;;54.60;23.40;;;7.20;99.90;;;;;;5042913;28;20238;-45
2023/10/25 07:01:05;;;;;;;60.60;23.90;;;7.30;99.90;;;;;;5042961;28;20447;-45
2023/10/25 07:03:35;;;;;;;51.83;22.10;;;7.30;99.90;;;;;;5037513;28;20201;-45
2023/10/25 07:06:03;;;;;;;54.60;23.93;;;7.40;99.90;;;;;;5044249;28;20472;-46
2023/10/25 07:08:32;;;;;;;62.77;25.83;;;7.40;99.90;;;;;;5045165;28;20475;-45
2023/10/25 07:10:58;;;;;;;58.37;24.70;;;7.40;99.90;;;;;;5041803;28;20543;-45
2023/10/25 07:13:26;;;;;;;53.23;23.47;;;7.40;99.90;;;;;;5046312;28;20431;-45
2023/10/25 07:15:52;;;;;;;67.27;25.33;;;7.50;99.90;;;;;;5047225;28;20463;-45
2023/10/25 07:18:17;;;;;;;46.70;22.70;;;7.50;99.90;;;;;;5047389;28;20437;-45
2023/10/25 07:20:43;;;;;;;75.23;39.17;;;7.60;99.90;;;;;;5048089;28;20190;-45
2023/10/25 07:23:09;;;;;;;198.87;86.40;;;7.60;99.90;;;;;;5052937;28;21056;-45
2023/10/25 07:25:34;;;;;;;142.10;64.07;;;7.70;99.90;;;;;;5044501;28;20822;-45
2023/10/25 07:28:00;;;;;;;74.83;36.20;;;7.70;99.90;;;;;;5045334;28;20222;-46
2023/10/25 07:30:26;;;;;;;51.07;26.50;;;7.70;99.90;;;;;;5045376;28;20213;-45
2023/10/25 07:32:51;;;;;;;51.80;24.10;;;7.80;99.90;;;;;;5048222;28;20195;-45
2023/10/25 07:35:17;;;;;;;53.57;24.43;;;7.80;99.90;;;;;;5047503;28;20195;-45
2023/10/25 07:37:42;;;;;;;51.60;23.60;;;7.90;99.90;;;;;;5046519;28;20186;-47
2023/10/25 07:40:09;;;;;;;66.97;23.80;;;8.10;99.90;;;;;;5047380;28;20218;-46
2023/10/25 07:42:35;;;;;;;48.20;23.53;;;8.40;99.90;;;;;;5045731;28;20719;-46
2023/10/25 07:45:01;;;;;;;53.63;24.53;;;8.60;99.90;;;;;;5043101;28;21010;-46
2023/10/25 07:47:26;;;;;;;47.47;22.10;;;8.80;99.90;;;;;;5047601;28;20515;-46
2023/10/25 07:49:52;;;;;;;48.20;23.13;;;8.80;99.90;;;;;;5047594;28;20239;-45
2023/10/25 07:52:17;;;;;;;49.20;24.23;;;9.20;99.90;;;;;;5044710;28;20188;-46
2023/10/25 07:54:43;;;;;;;41.63;20.97;;;10.40;99.90;;;;;;5046987;28;20631;-47
2023/10/25 07:57:09;;;;;;;39.67;19.50;;;11.20;99.90;;;;;;5048142;28;20226;-46
2023/10/25 07:59:34;;;;;;;35.33;18.07;;;11.50;99.90;;;;;;5045703;28;20272;-47
2023/10/25 08:02:00;;;;;;;28.57;17.00;;;11.60;99.90;;;;;;5046677;28;20182;-45
2023/10/25 08:04:25;;;;;;;26.80;16.93;;;11.50;99.90;;;;;;5045875;28;20189;-46
2023/10/25 08:06:53;;;;;;;27.57;16.70;;;11.10;99.90;;;;;;5046329;28;20561;-45
2023/10/25 08:09:18;;;;;;;30.20;18.10;;;11.00;99.90;;;;;;5046011;28;20220;-46
2023/10/25 08:11:44;;;;;;;27.73;16.70;;;11.70;99.90;;;;;;5046220;28;21010;-47
2023/10/25 08:14:10;;;;;;;23.70;15.40;;;12.30;99.90;;;;;;5046431;28;20194;-46
2023/10/25 08:16:39;;;;;;;24.90;15.43;;;12.90;99.90;;;;;;5046166;28;21197;-47
2023/10/25 08:19:06;;;;;;;27.87;15.23;;;12.80;50.40;;;;;;5042712;28;20211;-47
2023/10/25 08:21:32;;;;;;;22.70;13.63;;;12.30;1.00;;;;;;5045389;28;20440;-48
2023/10/25 08:23:57;;;;;;;25.03;14.57;;;12.00;1.00;;;;;;5046645;28;20441;-46
2023/10/25 08:26:26;;;;;;;26.20;13.80;;;11.50;99.90;;;;;;5045521;28;20213;-47
2023/10/25 08:28:52;;;;;;;22.70;14.33;;;11.10;1.00;;;;;;5045246;28;20222;-48
2023/10/25 08:31:18;;;;;;;27.63;14.23;;;10.80;99.90;;;;;;5047481;28;20444;-47
2023/10/25 08:33:44;;;;;;;24.70;14.73;;;10.60;1.00;;;;;;5043873;28;20195;-47
2023/10/25 08:36:10;;;;;;;24.47;14.93;;;10.40;1.00;;;;;;5046443;28;20444;-47
2023/10/25 08:38:36;;;;;;;28.23;14.77;;;10.30;1.00;;;;;;5045596;28;20447;-46
2023/10/25 08:41:02;;;;;;;29.30;14.97;;;10.20;1.00;;;;;;5046605;28;20186;-47
2023/10/25 08:43:28;;;;;;;28.97;15.30;;;10.30;7.90;;;;;;5046081;28;20205;-46
2023/10/25 08:45:56;;;;;;;25.10;14.20;;;10.30;16.10;;;;;;5045627;28;20945;-47
2023/10/25 08:48:23;;;;;;;24.73;13.83;;;10.30;51.20;;;;;;5046643;28;20236;-47
2023/10/25 08:50:49;;;;;;;29.43;15.10;;;10.30;73.60;;;;;;5045557;28;20479;-47
2023/10/25 08:53:20;;;;;;;23.77;14.20;;;10.40;79.60;;;;;;5045130;28;20932;-48
2023/10/25 08:55:45;;;;;;;24.00;14.97;;;10.40;74.40;;;;;;5045437;28;20452;-47
2023/10/25 08:58:13;;;;;;;27.37;14.90;;;10.40;71.90;;;;;;5045406;28;20435;-48
2023/10/25 09:00:39;;;;;;;25.60;15.10;;;10.40;91.10;;;;;;5045174;28;20217;-47
2023/10/25 09:03:05;;;;;;;24.83;14.57;;;10.50;99.90;;;;;;5044216;28;20446;-46
2023/10/25 09:05:39;;;;;;;27.80;14.77;;;10.50;85.50;;;;;;5046660;28;20428;-48
2023/10/25 09:08:15;;;;;;;24.20;14.13;;;10.50;96.90;;;;;;5045416;28;20316;-46
2023/10/25 09:10:40;;;;;;;22.17;13.60;;;10.50;84.20;;;;;;5043162;28;20895;-47
2023/10/25 09:13:16;;;;;;;23.97;14.43;;;10.60;95.10;;;;;;5050839;28;20437;-48
2023/10/25 09:15:41;;;;;;;22.03;13.90;;;10.70;78.00;;;;;;5050960;28;20273;-48
2023/10/25 09:18:07;;;;;;;23.50;13.23;;;10.80;91.80;;;;;;5051735;28;20512;-48
2023/10/25 09:20:32;;;;;;;24.50;11.93;;;10.90;42.30;;;;;;5052031;28;20185;-48
2023/10/25 09:23:11;;;;;;;19.67;11.70;;;11.00;55.20;;;;;;5051317;28;20244;-48
2023/10/25 09:25:37;;;;;;;20.70;12.03;;;11.10;11.90;;;;;;5052310;28;20334;-48
2023/10/25 09:28:03;;;;;;;20.93;11.57;;;11.10;1.00;;;;;;5051262;28;20465;-48
2023/10/25 09:30:30;;;;;;;26.13;11.63;;;11.30;13.30;;;;;;5050778;28;20268;-48
2023/10/25 09:32:59;;;;;;;15.30;9.73;;;11.30;1.00;;;;;;5050624;28;20441;-48
2023/10/25 09:35:25;;;;;;;22.00;10.90;;;11.30;1.00;;;;;;5050827;28;20441;-48
2023/10/25 09:37:50;;;;;;;20.43;10.47;;;11.50;1.00;;;;;;5050573;28;20941;-48
2023/10/25 09:40:16;;;;;;;17.87;9.80;;;11.60;1.00;;;;;;5051307;28;20186;-47
2023/10/25 09:42:49;;;;;;;14.87;10.30;;;11.60;1.00;;;;;;5045220;28;20236;-47
2023/10/25 09:45:22;;;;;;;16.17;10.13;;;11.80;1.00;;;;;;5044695;28;20199;-48
2023/10/25 09:47:53;;;;;;;17.23;10.10;;;11.90;1.00;;;;;;5042018;28;20469;-46
2023/10/25 09:50:31;;;;;;;17.20;10.00;;;12.10;1.00;;;;;;5044672;28;20977;-45
2023/10/25 09:53:10;;;;;;;19.40;8.90;;;12.20;1.00;;;;;;5044805;28;20433;-44
2023/10/25 09:55:41;;;;;;;19.00;8.97;;;12.40;99.90;;;;;;5042468;28;20440;-45
2023/10/25 09:58:10;;;;;;;182.63;98.80;;;12.50;99.90;;;;;;5042027;28;20430;-43
2023/10/25 10:00:36;;;;;;;26.30;15.60;;;12.70;1.00;;;;;;5038118;28;20487;-44
2023/10/25 10:03:23;;;;;;;18.03;10.13;;;13.10;99.90;;;;;;5044544;28;20491;-43
2023/10/25 10:06:11;;;;;;;14.77;9.37;;;13.40;1.00;;;;;;5043455;28;20449;-44
2023/10/25 10:08:47;;;;;;;15.13;9.10;;;13.60;1.00;;;;;;5037814;28;20894;-44
2023/10/25 10:11:16;;;;;;;12.03;9.07;;;13.70;99.90;;;;;;5044744;28;20457;-44
2023/10/25 10:13:42;;;;;;;15.13;9.13;;;14.00;99.90;;;;;;5043766;28;21147;-44
2023/10/25 10:16:09;;;;;;;17.80;9.20;;;14.30;1.00;;;;;;5044993;28;20440;-44
2023/10/25 10:18:42;;;;;;;18.73;9.20;;;14.50;99.90;;;;;;5044008;28;20642;-44
2023/10/25 10:21:09;;;;;;;13.37;7.70;;;14.90;99.90;;;;;;5044655;28;20438;-43
2023/10/25 10:23:51;;;;;;;13.40;7.33;;;15.30;1.00;;;;;;5045596;28;20503;-44
2023/10/25 10:26:44;;;;;;;17.53;8.57;;;16.00;99.90;;;;;;5043395;28;20532;-44
2023/10/25 10:29:31;;;;;;;10.83;6.83;;;17.60;25.40;;;;;;5044275;28;20515;-44
2023/10/25 10:31:58;;;;;;;11.13;6.37;;;19.30;1.00;;;;;;5043401;28;20536;-44
2023/10/25 10:34:56;;;;;;;7.67;5.67;;;20.50;1.00;;;;;;5044770;28;20463;-45
2023/10/25 10:37:24;;;;;;;8.57;5.90;;;21.50;1.00;;;;;;5041784;28;20938;-44
2023/10/25 10:39:55;;;;;;;10.90;6.63;;;21.70;1.00;;;;;;5045093;28;20495;-44
2023/10/25 10:42:29;;;;;;;10.43;6.90;;;21.60;1.00;;;;;;5043344;28;20453;-44
2023/10/25 10:45:10;;;;;;;21.50;8.17;;;21.60;1.00;;;;;;5044385;28;20966;-44
2023/10/25 10:47:39;;;;;;;14.87;8.20;;;21.90;1.00;;;;;;5042878;28;20830;-44
2023/10/25 10:50:13;;;;;;;12.40;7.47;;;22.30;1.00;;;;;;5048200;28;20897;-44
2023/10/25 10:52:40;;;;;;;13.33;7.83;;;23.20;1.00;;;;;;5047123;28;20437;-45
2023/10/25 10:55:07;;;;;;;9.97;6.87;;;23.40;1.00;;;;;;5048466;28;20446;-45
2023/10/25 10:57:37;;;;;;;10.83;6.70;;;22.70;1.00;;;;;;5047343;28;20858;-45
2023/10/25 11:00:08;;;;;;;17.70;7.80;;;22.00;1.00;;;;;;5047287;28;20433;-44
2023/10/25 11:02:37;;;;;;;11.90;7.27;;;21.60;1.00;;;;;;5048401;28;21438;-44
2023/10/25 11:05:04;;;;;;;13.13;6.70;;;20.90;1.00;;;;;;5046439;28;20968;-45
2023/10/25 11:07:30;;;;;;;13.33;6.67;;;20.30;1.00;;;;;;5047111;28;20838;-43
2023/10/25 11:09:56;;;;;;;13.80;6.67;;;19.50;1.00;;;;;;5046120;28;20439;-45
2023/10/25 11:12:23;;;;;;;14.67;6.07;;;19.00;1.00;;;;;;5047267;28;20185;-46
2023/10/25 11:14:48;;;;;;;10.57;6.57;;;18.60;1.00;;;;;;5045915;28;20222;-44
2023/10/25 11:17:14;;;;;;;16.50;5.70;;;18.20;1.00;;;;;;5046524;28;20470;-44
2023/10/25 11:19:41;;;;;;;11.57;5.43;;;17.80;1.00;;;;;;5048547;28;20212;-44
2023/10/25 11:22:07;;;;;;;7.20;5.10;;;17.50;1.00;;;;;;5045327;28;20198;-44
2023/10/25 11:24:35;;;;;;;12.47;6.03;;;17.60;1.00;;;;;;5047136;28;20441;-44
2023/10/25 11:27:02;;;;;;;15.17;5.23;;;17.60;1.00;;;;;;5047615;28;20187;-44
2023/10/25 11:29:30;;;;;;;8.77;5.67;;;17.70;1.00;;;;;;5046969;28;20425;-44
2023/10/25 11:32:00;;;;;;;16.20;5.63;;;17.90;1.00;;;;;;5048379;28;20450;-44
2023/10/25 11:34:30;;;;;;;8.20;5.60;;;18.40;1.00;;;;;;5044376;28;20491;-43
2023/10/25 11:36:56;;;;;;;10.90;5.10;;;18.90;1.00;;;;;;5039880;28;20439;-43
2023/10/25 11:39:21;;;;;;;9.40;6.00;;;19.10;1.00;;;;;;5047319;28;20939;-45
2023/10/25 11:41:47;;;;;;;9.07;5.60;;;18.80;1.00;;;;;;5053618;28;20559;-43
2023/10/25 11:44:19;;;;;;;10.70;6.50;;;18.50;1.00;;;;;;5054058;28;20190;-43
2023/10/25 11:46:45;;;;;;;11.40;6.40;;;18.20;1.00;;;;;;5043227;28;20206;-43
2023/10/25 11:49:10;;;;;;;10.57;5.37;;;18.20;1.00;;;;;;5042629;28;21227;-43
2023/10/25 11:51:36;;;;;;;12.27;6.07;;;18.40;1.00;;;;;;5044111;28;20261;-43
2023/10/25 11:54:04;;;;;;;10.70;5.40;;;19.40;1.00;;;;;;5053545;28;20191;-43
2023/10/25 11:56:30;;;;;;;12.10;4.83;;;21.00;1.00;;;;;;5049832;28;20441;-43
2023/10/25 11:58:55;;;;;;;10.23;5.23;;;22.20;1.00;;;;;;5046118;28;20483;-44
2023/10/25 12:01:21;;;;;;;7.00;4.80;;;23.20;1.00;;;;;;5052214;28;21041;-44
2023/10/25 12:03:46;;;;;;;7.63;3.90;;;24.30;1.00;;;;;;5052647;28;20566;-44
2023/10/25 12:06:12;;;;;;;7.87;4.20;;;25.30;1.00;;;;;;5048380;28;20190;-43
2023/10/25 12:08:42;;;;;;;6.93;3.70;;;25.80;1.00;;;;;;5040263;28;20219;-44
2023/10/25 12:11:11;;;;;;;6.10;3.10;;;26.00;1.00;;;;;;5036917;28;20187;-44
2023/10/25 12:13:40;;;;;;;7.37;3.20;;;26.60;1.00;;;;;;5033857;28;20537;-45
2023/10/25 12:16:07;;;;;;;4.23;2.73;;;26.60;1.00;;;;;;5053199;28;20425;-45
2023/10/25 12:18:35;;;;;;;5.03;3.40;;;26.50;1.00;;;;;;5052837;28;20437;-45
2023/10/25 12:21:04;;;;;;;7.47;3.53;;;26.40;1.00;;;;;;5052939;28;20521;-45
2023/10/25 12:23:32;;;;;;;5.33;2.70;;;26.50;1.00;;;;;;5042930;28;20934;-45
2023/10/25 12:25:57;;;;;;;9.17;2.87;;;26.50;1.00;;;;;;5037955;28;20477;-45
2023/10/25 12:28:24;;;;;;;5.27;3.07;;;26.50;1.00;;;;;;5033048;28;20505;-45
2023/10/25 12:30:50;;;;;;;5.73;3.10;;;26.30;1.00;;;;;;5044430;28;20199;-47
2023/10/25 12:33:16;;;;;;;5.50;3.00;;;25.50;1.00;;;;;;5052853;28;20445;-45
2023/10/25 12:35:42;;;;;;;8.70;3.07;;;24.60;1.00;;;;;;5049377;28;20493;-45
2023/10/25 12:38:08;;;;;;;5.93;3.60;;;23.30;1.00;;;;;;5044018;28;20442;-44
2023/10/25 12:40:34;;;;;;;9.43;3.70;;;22.30;1.00;;;;;;5046517;28;20444;-45